createdAt,value
2023-01-30T00:00:38.032Z,13.13
2023-01-30T00:03:40.229Z,14.87
2023-01-30T00:06:42.486Z,15.35
2023-01-30T00:09:45.271Z,14.98
2023-01-30T00:12:47.679Z,14.47
2023-01-30T00:15:50.293Z,16.35
2023-01-30T00:18:52.478Z,14.40
2023-01-30T00:21:54.600Z,13.68
2023-01-30T00:24:56.876Z,12.13
2023-01-30T00:28:01.165Z,13.35
2023-01-30T00:31:04.830Z,15.88
2023-01-30T00:34:08.504Z,12.53
2023-01-30T00:37:10.662Z,14.30
2023-01-30T00:40:12.864Z,13.23
2023-01-30T00:43:35.663Z,18.10
2023-01-30T00:46:56.395Z,12.55
2023-01-30T00:49:58.596Z,17.58
2023-01-30T00:53:00.718Z,14.43
2023-01-30T00:56:02.927Z,13.68
2023-01-30T00:59:05.099Z,13.98
2023-01-30T01:02:07.419Z,13.15
2023-01-30T01:05:09.774Z,13.70
2023-01-30T01:08:12.013Z,14.98
2023-01-30T01:11:24.463Z,12.18
2023-01-30T01:14:27.142Z,14.20
2023-01-30T01:17:29.604Z,15.13
2023-01-30T01:20:31.753Z,15.50
2023-01-30T01:23:33.990Z,14.38
2023-01-30T01:26:37.534Z,12.98
2023-01-30T01:29:39.706Z,15.40
2023-01-30T01:32:42.036Z,16.00
2023-01-30T01:35:45.116Z,12.23
2023-01-30T01:38:47.369Z,15.73
2023-01-30T01:41:49.519Z,15.25
2023-01-30T01:45:03.918Z,15.30
2023-01-30T01:48:14.753Z,15.88
2023-01-30T01:51:22.870Z,13.75
2023-01-30T01:54:34.060Z,14.40
2023-01-30T01:57:46.975Z,13.57
2023-01-30T02:00:52.929Z,14.00
2023-01-30T02:03:59.300Z,15.00
2023-01-30T02:07:01.480Z,15.80
2023-01-30T02:10:04.840Z,16.90
2023-01-30T02:13:06.988Z,15.82
2023-01-30T02:16:09.590Z,15.17
2023-01-30T02:19:32.681Z,15.48
2023-01-30T02:23:04.132Z,16.10
2023-01-30T02:26:40.288Z,16.17
2023-01-30T02:30:05.056Z,16.77
2023-01-30T02:33:30.715Z,18.10
2023-01-30T02:36:47.992Z,16.00
2023-01-30T02:40:06.006Z,16.53
2023-01-30T02:43:08.145Z,14.30
2023-01-30T02:46:20.560Z,16.70
2023-01-30T02:49:32.603Z,14.50
2023-01-30T02:52:35.039Z,14.90
2023-01-30T02:55:41.192Z,17.10
2023-01-30T02:58:48.664Z,18.00
2023-01-30T03:01:54.090Z,13.20
2023-01-30T03:05:19.194Z,15.60
2023-01-30T03:08:34.593Z,13.52
2023-01-30T03:11:47.170Z,14.47
2023-01-30T03:14:56.746Z,18.75
2023-01-30T03:17:59.741Z,17.08
2023-01-30T03:21:07.291Z,17.53
2023-01-30T03:24:09.515Z,16.95
2023-01-30T03:27:12.855Z,16.33
2023-01-30T03:30:15.236Z,17.10
2023-01-30T03:33:17.495Z,18.23
2023-01-30T03:36:23.078Z,17.20
2023-01-30T03:39:25.987Z,18.10
2023-01-30T03:42:28.483Z,18.27
2023-01-30T03:45:30.639Z,17.13
2023-01-30T03:48:33.803Z,19.10
2023-01-30T03:51:36.186Z,20.07
2023-01-30T03:54:38.715Z,19.42
2023-01-30T03:57:40.955Z,18.08
2023-01-30T04:00:43.522Z,17.95
2023-01-30T04:04:01.795Z,22.02
2023-01-30T04:07:20.454Z,19.00
2023-01-30T04:17:01.409Z,19.08
2023-01-30T04:20:26.991Z,19.08
2023-01-30T04:23:31.181Z,20.53
2023-01-30T04:26:33.458Z,16.85
2023-01-30T04:29:37.011Z,19.92
2023-01-30T04:32:42.580Z,20.85
2023-01-30T04:35:59.208Z,23.05
2023-01-30T04:39:02.173Z,20.58
2023-01-30T04:42:06.048Z,20.25
2023-01-30T04:45:14.904Z,18.47
2023-01-30T04:48:17.983Z,17.48
2023-01-30T04:51:20.597Z,19.67
2023-01-30T04:54:23.559Z,17.93
2023-01-30T04:57:25.772Z,18.33
2023-01-30T05:00:28.086Z,17.73
2023-01-30T05:03:33.956Z,20.02
2023-01-30T05:06:37.071Z,16.73
2023-01-30T05:09:39.266Z,19.38
2023-01-30T05:12:41.478Z,18.67
2023-01-30T05:15:45.119Z,18.80
2023-01-30T05:18:47.453Z,18.08
2023-01-30T05:21:49.610Z,17.10
2023-01-30T05:24:51.844Z,16.17
2023-01-30T05:27:54.786Z,16.90
2023-01-30T05:31:11.628Z,18.65
2023-01-30T05:34:14.531Z,16.38
2023-01-30T05:37:17.151Z,17.15
2023-01-30T05:43:36.353Z,17.25
2023-01-30T05:46:52.694Z,15.80
2023-01-30T05:49:54.910Z,16.73
2023-01-30T05:52:57.104Z,18.15
2023-01-30T05:56:01.611Z,15.73
2023-01-30T05:59:04.100Z,15.95
2023-01-30T06:02:06.363Z,16.17
2023-01-30T06:05:08.947Z,16.73
2023-01-30T06:08:11.169Z,15.45
2023-01-30T06:11:15.504Z,19.42
2023-01-30T06:14:17.776Z,17.83
2023-01-30T06:17:19.933Z,19.93
2023-01-30T06:20:22.191Z,19.10
2023-01-30T06:26:43.780Z,16.87
2023-01-30T06:29:46.009Z,19.45
2023-01-30T06:32:51.638Z,18.05
2023-01-30T06:35:53.857Z,20.73
2023-01-30T06:38:55.989Z,22.85
2023-01-30T06:41:58.166Z,20.33
2023-01-30T06:45:00.397Z,20.50
2023-01-30T06:48:03.018Z,18.63
2023-01-30T06:51:05.415Z,21.30
2023-01-30T06:54:07.713Z,19.40
2023-01-30T06:57:09.826Z,20.23
2023-01-30T07:00:18.900Z,18.73
2023-01-30T07:03:24.830Z,20.02
2023-01-30T07:06:27.760Z,21.30
2023-01-30T07:09:29.959Z,22.83
2023-01-30T07:12:37.306Z,22.08
2023-01-30T07:15:42.515Z,21.48
2023-01-30T07:18:44.911Z,23.53
2023-01-30T07:21:50.605Z,21.63
2023-01-30T07:24:52.829Z,23.38
2023-01-30T07:28:00.931Z,23.50
2023-01-30T07:31:03.186Z,21.00
2023-01-30T07:34:05.853Z,21.27
2023-01-30T07:37:08.012Z,26.13
2023-01-30T07:40:10.963Z,20.60
2023-01-30T07:43:13.887Z,22.85
2023-01-30T07:46:16.161Z,22.40
2023-01-30T07:49:18.369Z,21.30
2023-01-30T07:52:20.516Z,18.45
2023-01-30T07:55:22.882Z,20.30
2023-01-30T07:58:25.096Z,18.23
2023-01-30T08:01:27.929Z,24.00
2023-01-30T08:04:30.531Z,19.05
2023-01-30T08:07:32.795Z,21.55
2023-01-30T08:10:35.393Z,18.65
2023-01-30T08:13:38.948Z,21.25
2023-01-30T08:16:41.782Z,21.92
2023-01-30T08:19:43.991Z,20.83
2023-01-30T08:22:46.119Z,20.23
2023-01-30T08:25:48.266Z,24.42
2023-01-30T08:28:54.891Z,19.87
2023-01-30T08:32:01.440Z,22.63
2023-01-30T08:35:03.974Z,24.67
2023-01-30T08:38:07.386Z,21.83
2023-01-30T08:41:09.662Z,20.67
2023-01-30T08:44:12.513Z,24.45
2023-01-30T08:47:16.782Z,23.75
2023-01-30T08:50:19.316Z,23.13
2023-01-30T08:53:21.840Z,21.00
2023-01-30T08:56:24.473Z,24.50
2023-01-30T08:59:26.769Z,19.47
2023-01-30T09:02:37.716Z,20.60
2023-01-30T09:05:46.400Z,21.92
2023-01-30T09:08:50.035Z,23.65
2023-01-30T09:11:52.238Z,25.30
2023-01-30T09:14:55.861Z,24.40
2023-01-30T09:17:58.132Z,24.95
2023-01-30T09:21:04.404Z,26.73
2023-01-30T09:24:07.424Z,26.02
2023-01-30T09:27:12.079Z,22.48
2023-01-30T09:30:14.567Z,32.03
2023-01-30T09:33:20.460Z,34.13
2023-01-30T09:36:22.784Z,33.65
2023-01-30T09:39:24.965Z,28.85
2023-01-30T09:42:52.285Z,26.35
2023-01-30T09:46:19.093Z,24.23
2023-01-30T09:49:27.283Z,27.23
2023-01-30T09:52:58.220Z,22.13
2023-01-30T09:56:01.674Z,29.85
2023-01-30T09:59:05.737Z,49.30
2023-01-30T10:02:31.598Z,38.07
2023-01-30T10:05:40.932Z,25.55
2023-01-30T10:08:47.499Z,26.50
2023-01-30T10:12:14.172Z,25.00
2023-01-30T10:15:32.075Z,24.85
2023-01-30T10:19:03.532Z,26.50
2023-01-30T10:22:16.013Z,24.83
2023-01-30T10:25:31.461Z,25.87
2023-01-30T10:28:55.621Z,27.13
2023-01-30T10:32:21.086Z,24.08
2023-01-30T10:35:27.339Z,23.63
2023-01-30T10:38:35.273Z,28.25
2023-01-30T10:41:52.351Z,29.45
2023-01-30T10:45:01.035Z,25.50
2023-01-30T10:48:46.095Z,26.92
2023-01-30T10:52:15.287Z,25.88
2023-01-30T10:55:35.321Z,26.73
2023-01-30T10:59:05.060Z,25.60
2023-01-30T11:02:24.339Z,31.23
2023-01-30T11:05:42.438Z,24.85
2023-01-30T11:09:08.828Z,32.20
2023-01-30T11:12:12.755Z,23.08
2023-01-30T11:15:16.490Z,25.50
2023-01-30T11:19:08.188Z,25.33
2023-01-30T11:21:44.982Z,24.33
2023-01-30T11:24:48.652Z,24.05
2023-01-30T11:27:58.443Z,23.25
2023-01-30T11:31:02.675Z,21.83
2023-01-30T11:34:19.115Z,20.98
2023-01-30T11:37:31.824Z,20.70
2023-01-30T11:40:38.263Z,22.17
2023-01-30T11:43:40.500Z,24.25
2023-01-30T11:46:43.885Z,19.33
2023-01-30T11:50:07.209Z,22.67
2023-01-30T11:53:48.403Z,23.92
2023-01-30T11:56:58.148Z,19.05
2023-01-30T12:00:04.549Z,17.65
2023-01-30T12:03:15.893Z,19.10
2023-01-30T12:06:25.947Z,24.08
2023-01-30T12:09:40.094Z,25.27
2023-01-30T12:12:46.554Z,26.90
2023-01-30T12:15:54.628Z,23.98
2023-01-30T12:19:35.373Z,23.80
2023-01-30T12:22:52.385Z,19.20
2023-01-30T12:25:59.282Z,20.70
2023-01-30T12:29:04.358Z,21.85
2023-01-30T12:32:20.190Z,30.33
2023-01-30T12:35:32.655Z,19.43
2023-01-30T12:39:00.989Z,22.48
2023-01-30T12:42:33.667Z,28.55
2023-01-30T12:45:42.538Z,19.90
2023-01-30T12:49:12.183Z,18.70
2023-01-30T12:52:53.615Z,18.77
2023-01-30T12:56:02.374Z,17.05
2023-01-30T12:59:22.386Z,17.25
2023-01-30T13:02:36.743Z,19.42
2023-01-30T13:05:47.886Z,17.73
2023-01-30T13:09:17.784Z,21.23
2023-01-30T13:12:32.018Z,17.48
2023-01-30T13:15:41.971Z,16.27
2023-01-30T13:19:10.723Z,18.53
2023-01-30T13:22:34.062Z,17.90
2023-01-30T13:25:47.363Z,17.35
2023-01-30T13:28:52.582Z,17.80
2023-01-30T13:32:00.298Z,19.13
2023-01-30T13:35:05.182Z,20.55
2023-01-30T13:38:10.566Z,21.63
2023-01-30T13:41:15.143Z,19.10
2023-01-30T13:44:24.874Z,18.55
2023-01-30T13:47:55.092Z,20.20
2023-01-30T13:51:37.990Z,17.03
2023-01-30T13:54:57.942Z,16.17
2023-01-30T13:58:25.983Z,20.00
2023-01-30T14:01:59.122Z,18.20
2023-01-30T14:05:05.712Z,17.33
2023-01-30T14:08:12.520Z,15.18
2023-01-30T14:11:37.746Z,15.20
2023-01-30T14:15:00.100Z,15.80
2023-01-30T14:18:27.504Z,18.40
2023-01-30T14:21:29.882Z,19.38
2023-01-30T14:24:32.083Z,18.13
2023-01-30T14:27:34.335Z,21.38
2023-01-30T14:30:45.248Z,20.73
2023-01-30T14:33:51.492Z,17.65
2023-01-30T14:36:54.174Z,19.10
2023-01-30T14:39:57.677Z,18.50
2023-01-30T14:43:12.055Z,17.83
2023-01-30T14:46:20.112Z,20.20
2023-01-30T14:49:28.051Z,14.93
2023-01-30T14:52:41.419Z,20.55
2023-01-30T14:55:43.611Z,15.50
2023-01-30T14:58:56.794Z,18.45
2023-01-30T15:02:08.106Z,17.60
2023-01-30T15:05:14.459Z,16.88
2023-01-30T15:08:22.579Z,16.50
2023-01-30T15:11:29.775Z,17.05
2023-01-30T15:14:46.814Z,17.65
2023-01-30T15:18:34.153Z,16.67
2023-01-30T15:21:45.502Z,15.40
2023-01-30T15:24:53.454Z,17.52
2023-01-30T15:28:22.879Z,17.07
2023-01-30T15:32:03.528Z,14.32
2023-01-30T15:35:12.077Z,19.48
2023-01-30T15:38:32.842Z,17.83
2023-01-30T15:41:42.613Z,18.10
2023-01-30T15:44:54.824Z,13.48
2023-01-30T15:48:34.699Z,17.08
2023-01-30T15:51:38.149Z,15.43
2023-01-30T15:54:40.335Z,16.27
2023-01-30T15:57:48.019Z,22.90
2023-01-30T16:00:55.361Z,13.87
2023-01-30T16:04:00.541Z,16.60
2023-01-30T16:07:14.844Z,18.35
2023-01-30T16:10:25.487Z,18.30
2023-01-30T16:13:28.927Z,17.42
2023-01-30T16:16:32.295Z,16.83
2023-01-30T16:19:37.359Z,21.08
2023-01-30T16:22:43.731Z,17.60
2023-01-30T16:25:47.141Z,18.23
2023-01-30T16:28:51.338Z,17.85
2023-01-30T16:31:55.412Z,16.53
2023-01-30T16:35:23.907Z,16.52
2023-01-30T16:38:37.927Z,16.83
2023-01-30T16:41:42.780Z,17.17
2023-01-30T16:44:45.230Z,15.32
2023-01-30T16:47:47.812Z,20.00
2023-01-30T16:51:11.320Z,20.27
2023-01-30T16:54:23.765Z,19.13
2023-01-30T16:57:31.643Z,18.90
2023-01-30T17:00:38.075Z,20.77
2023-01-30T17:03:51.753Z,18.43
2023-01-30T17:06:57.892Z,18.70
2023-01-30T17:10:00.136Z,20.05
2023-01-30T17:13:02.341Z,18.30
2023-01-30T17:16:36.091Z,19.25
2023-01-30T17:19:53.147Z,20.10
2023-01-30T17:23:18.416Z,18.42
2023-01-30T17:29:43.323Z,18.35
2023-01-30T17:32:46.203Z,18.33
2023-01-30T17:35:48.430Z,20.73
2023-01-30T17:38:50.658Z,18.77
2023-01-30T17:41:52.849Z,19.38
2023-01-30T17:44:55.066Z,17.52
2023-01-30T17:47:57.509Z,16.42
2023-01-30T17:51:00.089Z,18.00
2023-01-30T17:54:02.239Z,18.50
2023-01-30T17:57:05.935Z,14.70
2023-01-30T18:00:10.834Z,17.73
2023-01-30T18:03:14.624Z,19.08
2023-01-30T18:06:16.893Z,19.47
2023-01-30T18:09:21.458Z,19.85
2023-01-30T18:12:23.637Z,17.85
2023-01-30T18:15:25.802Z,18.65
2023-01-30T18:18:28.031Z,11.88
2023-01-30T18:21:30.405Z,13.43
2023-01-30T18:24:33.461Z,14.63
2023-01-30T18:27:35.639Z,11.00
2023-01-30T18:30:37.951Z,14.05
2023-01-30T18:33:41.090Z,13.02
2023-01-30T18:36:43.279Z,11.53
2023-01-30T18:39:45.444Z,12.43
2023-01-30T18:42:47.713Z,12.35
2023-01-30T18:45:49.925Z,11.40
2023-01-30T18:48:52.100Z,12.82
2023-01-30T18:51:54.247Z,14.45
2023-01-30T18:58:51.765Z,13.53
2023-01-30T19:02:14.464Z,11.38
2023-01-30T19:05:17.384Z,14.20
2023-01-30T19:08:19.741Z,12.60
2023-01-30T19:11:41.193Z,11.80
2023-01-30T19:14:43.446Z,12.73
2023-01-30T19:17:45.565Z,11.35
2023-01-30T19:20:47.682Z,10.73
2023-01-30T19:23:50.364Z,10.50
2023-01-30T19:26:52.595Z,9.80
2023-01-30T19:29:54.800Z,12.23
2023-01-30T19:32:59.202Z,11.80
2023-01-30T19:36:29.399Z,10.63
2023-01-30T19:39:32.262Z,10.03
2023-01-30T19:42:35.055Z,6.75
2023-01-30T19:45:57.525Z,9.68
2023-01-30T19:49:18.245Z,7.00
2023-01-30T19:55:52.264Z,5.35
2023-01-30T19:59:25.745Z,7.50
2023-01-30T20:02:31.232Z,6.53
2023-01-30T20:06:02.319Z,5.15
2023-01-30T20:09:08.629Z,4.85
2023-01-30T20:12:14.692Z,6.37
2023-01-30T20:15:33.010Z,6.20
2023-01-30T20:21:54.285Z,7.18
2023-01-30T20:24:56.495Z,6.35
2023-01-30T20:27:58.632Z,5.50
2023-01-30T20:31:06.494Z,7.72
2023-01-30T20:34:12.200Z,4.23
2023-01-30T20:37:16.519Z,4.53
2023-01-30T20:40:18.958Z,4.53
2023-01-30T20:43:21.387Z,5.90
2023-01-30T20:46:28.594Z,4.53
2023-01-30T20:49:30.799Z,7.10
2023-01-30T20:52:32.999Z,4.43
2023-01-30T20:55:35.121Z,3.38
2023-01-30T20:58:37.398Z,5.57
2023-01-30T21:01:39.704Z,4.68
2023-01-30T21:04:41.981Z,4.33
2023-01-30T21:07:44.108Z,5.45
2023-01-30T21:10:47.189Z,5.57
2023-01-30T21:13:49.323Z,4.03
2023-01-30T21:16:51.540Z,4.43
2023-01-30T21:19:53.748Z,3.97
2023-01-30T21:22:58.764Z,4.15
2023-01-30T21:26:06.094Z,5.05
2023-01-30T21:29:08.500Z,4.78
2023-01-30T21:32:10.688Z,4.47
2023-01-30T21:35:12.936Z,4.63
2023-01-30T21:38:33.538Z,4.35
2023-01-30T21:41:59.363Z,5.15
2023-01-30T21:45:02.335Z,3.87
2023-01-30T21:48:05.022Z,3.45
2023-01-30T21:51:12.116Z,4.45
2023-01-30T21:54:30.432Z,3.92
2023-01-30T21:57:32.597Z,3.15
2023-01-30T22:00:37.771Z,3.70
2023-01-30T22:03:41.044Z,6.00
2023-01-30T22:06:44.125Z,4.63
2023-01-30T22:09:46.333Z,4.15
2023-01-30T22:12:49.370Z,3.30
2023-01-30T22:15:51.739Z,3.33
2023-01-30T22:18:56.142Z,4.20
2023-01-30T22:21:58.911Z,3.75
2023-01-30T22:25:01.134Z,6.22
2023-01-30T22:28:03.403Z,3.80
2023-01-30T22:31:08.036Z,4.07
2023-01-30T22:34:10.250Z,3.20
2023-01-30T22:37:12.826Z,3.67
2023-01-30T22:40:15.229Z,4.60
2023-01-30T22:43:17.441Z,3.05
2023-01-30T22:46:20.236Z,5.43
2023-01-30T22:49:22.488Z,3.55
2023-01-30T22:52:24.712Z,5.10
2023-01-30T22:55:26.824Z,3.35
2023-01-30T22:58:29.305Z,3.95
2023-01-30T23:01:37.178Z,3.22
2023-01-30T23:04:39.399Z,2.35
2023-01-30T23:07:41.532Z,3.07
2023-01-30T23:10:43.640Z,3.00
2023-01-30T23:13:48.301Z,3.45
2023-01-30T23:16:50.416Z,2.70
2023-01-30T23:19:53.551Z,3.78
2023-01-30T23:22:55.675Z,4.70
2023-01-30T23:25:57.850Z,3.47
2023-01-30T23:29:04.481Z,3.35
2023-01-30T23:32:06.690Z,3.72
2023-01-30T23:35:08.886Z,2.85
2023-01-30T23:38:18.956Z,3.50
2023-01-30T23:41:23.343Z,2.38
2023-01-30T23:44:25.527Z,2.13
2023-01-30T23:47:27.712Z,3.17
2023-01-30T23:50:29.848Z,5.00
2023-01-30T23:53:32.519Z,2.95
2023-01-30T23:56:36.602Z,5.25
2023-01-30T23:59:38.957Z,3.60
